Time;durP1;ratioP1;P1;durP2;ratioP2;P2;SDS_P1;SDS_P2;PMS_P1;PMS_P2;Temp;Humidity;BMP_temperature;BMP_pressure;BME280_temperature;BME280_humidity;BME280_pressure;Samples;Min_cycle;Max_cycle;Signal;HPM_P1;HPM_P2
2022/07/10 00:00:27;;;;;;;18.87;15.30;;;;;;;16.23;100.00;94606.44;4932820;29;20202;-76
2022/07/10 00:02:54;;;;;;;18.47;14.80;;;;;;;16.18;100.00;94603.00;4952819;29;20200;-76
2022/07/10 00:05:22;;;;;;;19.73;15.67;;;;;;;16.15;100.00;94608.75;4952233;29;20676;-76
2022/07/10 00:07:49;;;;;;;18.70;16.33;;;;;;;16.15;100.00;94606.13;4951247;28;20606;-76
2022/07/10 00:10:16;;;;;;;19.23;15.10;;;;;;;16.09;100.00;94594.81;4952088;29;20249;-75
2022/07/10 00:12:43;;;;;;;19.73;16.00;;;;;;;16.11;100.00;94600.59;4952480;29;20221;-75
2022/07/10 00:15:10;;;;;;;18.93;15.57;;;;;;;16.08;100.00;94598.47;4952408;29;20198;-76
2022/07/10 00:17:40;;;;;;;18.17;15.50;;;;;;;16.15;100.00;94600.88;4953203;29;20570;-76
2022/07/10 00:20:08;;;;;;;16.90;15.10;;;;;;;16.06;100.00;94592.69;4953306;29;20201;-77
2022/07/10 00:22:35;;;;;;;19.77;14.87;;;;;;;16.06;100.00;94595.31;4953039;29;20197;-76
2022/07/10 00:25:02;;;;;;;19.60;14.83;;;;;;;16.04;100.00;94586.94;4952528;29;20198;-76
2022/07/10 00:27:29;;;;;;;17.97;15.27;;;;;;;16.09;100.00;94594.81;4953065;29;20208;-76
2022/07/10 00:29:56;;;;;;;17.80;14.93;;;;;;;16.07;100.00;94588.25;4953163;29;20284;-76
2022/07/10 00:32:23;;;;;;;17.43;15.53;;;;;;;16.12;100.00;94593.50;4952926;29;20710;-76
2022/07/10 00:34:52;;;;;;;18.53;15.37;;;;;;;16.05;100.00;94588.47;4953363;29;20292;-78
2022/07/10 00:37:20;;;;;;;17.27;15.40;;;;;;;16.08;100.00;94579.31;4952743;29;20324;-78
2022/07/10 00:39:47;;;;;;;39.00;31.03;;;;;;;16.01;100.00;94584.00;4953296;29;20288;-78
2022/07/10 00:42:15;;;;;;;80.50;60.13;;;;;;;16.00;100.00;94582.41;4953437;29;20252;-78
2022/07/10 00:44:44;;;;;;;61.57;46.43;;;;;;;15.98;100.00;94584.50;4953276;29;20656;-79
2022/07/10 00:47:13;;;;;;;42.23;34.37;;;;;;;16.01;100.00;94586.63;4952957;29;20240;-78
2022/07/10 00:49:41;;;;;;;32.77;25.43;;;;;;;16.03;100.00;94582.72;4933967;29;20198;-75
2022/07/10 00:52:13;;;;;;;27.20;22.10;;;;;;;16.00;100.00;94579.81;4932960;29;20198;-76
2022/07/10 00:54:43;;;;;;;26.90;19.57;;;;;;;15.98;100.00;94574.03;4934066;29;20206;-75
2022/07/10 00:57:10;;;;;;;23.83;18.30;;;;;;;15.95;100.00;94574.53;4934011;29;20198;-75
2022/07/10 00:59:37;;;;;;;22.87;17.67;;;;;;;15.90;100.00;94581.31;4933304;29;20609;-75
2022/07/10 01:02:05;;;;;;;18.50;16.07;;;;;;;15.96;100.00;94579.50;4933405;29;20209;-75
2022/07/10 01:04:33;;;;;;;20.17;15.23;;;;;;;15.96;100.00;94578.75;4933574;29;20209;-76
2022/07/10 01:07:00;;;;;;;19.80;14.70;;;;;;;15.97;100.00;94568.00;4933426;29;20205;-76
2022/07/10 01:09:29;;;;;;;18.17;15.37;;;;;;;15.99;100.00;94578.25;4933900;29;20199;-75
2022/07/10 01:11:57;;;;;;;20.23;15.00;;;;;;;15.94;100.00;94576.34;4933757;29;20261;-76
2022/07/10 01:14:26;;;;;;;18.47;15.33;;;;;;;15.99;100.00;94570.38;4934190;29;20198;-76
2022/07/10 01:16:53;;;;;;;19.90;15.13;;;;;;;15.95;100.00;94570.09;4933520;29;20201;-75
2022/07/10 01:19:20;;;;;;;19.43;15.47;;;;;;;15.84;100.00;94560.59;4952203;28;20205;-76
2022/07/10 01:21:48;;;;;;;19.97;14.87;;;;;;;15.84;100.00;94563.19;4956273;29;20190;-76
2022/07/10 01:24:15;;;;;;;18.57;15.87;;;;;;;15.83;100.00;94565.03;4956714;29;20197;-77
2022/07/10 01:26:43;;;;;;;20.13;14.70;;;;;;;15.78;100.00;94557.13;4956357;29;20246;-76
2022/07/10 01:29:11;;;;;;;19.97;14.97;;;;;;;15.84;100.00;94561.34;4956054;29;20260;-76
2022/07/10 01:31:39;;;;;;;19.90;15.33;;;;;;;15.85;100.00;94556.91;4956519;29;20652;-75
2022/07/10 01:34:09;;;;;;;18.90;15.53;;;;;;;15.85;100.00;94551.66;4956331;29;20225;-75
2022/07/10 01:36:37;;;;;;;16.30;14.07;;;;;;;15.85;100.00;94552.44;4956241;29;20209;-75
2022/07/10 01:39:06;;;;;;;20.73;14.53;;;;;;;15.79;100.00;94540.34;4956231;29;20225;-75
2022/07/10 01:41:33;;;;;;;20.20;14.40;;;;;;;15.90;100.00;94543.84;4956255;29;20189;-75
2022/07/10 01:44:00;;;;;;;17.03;13.87;;;;;;;15.97;100.00;94548.84;4956281;29;20205;-76
2022/07/10 01:46:27;;;;;;;17.37;13.70;;;;;;;15.97;100.00;94543.59;4956442;29;20201;-76
2022/07/10 01:48:54;;;;;;;15.63;13.97;;;;;;;15.97;100.00;94548.84;4956238;29;20212;-76
2022/07/10 01:51:21;;;;;;;15.97;14.27;;;;;;;15.92;100.00;94548.81;4956177;29;20206;-75
2022/07/10 01:53:48;;;;;;;19.63;14.83;;;;;;;15.84;100.00;94539.63;4956447;29;20221;-76
2022/07/10 01:56:17;;;;;;;17.13;13.60;;;;;;;15.93;100.00;94553.03;4956015;29;20204;-76
2022/07/10 01:58:44;;;;;;;19.53;14.20;;;;;;;15.87;100.00;94550.34;4955865;29;20200;-76
2022/07/10 02:01:11;;;;;;;17.20;13.13;;;;;;;15.85;100.00;94549.03;4956198;29;20201;-76
2022/07/10 02:06:22;;;;;;;16.53;14.03;;;;;;;15.73;100.00;94538.75;4921114;29;20693;-75
2022/07/10 02:08:49;;;;;;;17.83;14.17;;;;;;;15.64;100.00;94535.00;4956313;29;20710;-77
2022/07/10 02:11:17;;;;;;;19.07;14.27;;;;;;;15.61;100.00;94538.13;4955635;29;20578;-77
2022/07/10 02:13:44;;;;;;;16.50;13.30;;;;;;;15.64;100.00;94537.63;4955642;29;20221;-77
2022/07/10 02:16:11;;;;;;;16.43;13.73;;;;;;;15.60;100.00;94527.91;4955859;29;20205;-76
2022/07/10 02:18:39;;;;;;;16.27;14.23;;;;;;;15.56;100.00;94530.25;4955962;29;20201;-76
2022/07/10 02:21:06;;;;;;;17.03;14.40;;;;;;;15.48;100.00;94517.63;4954585;29;20202;-76
2022/07/10 02:23:34;;;;;;;19.70;14.60;;;;;;;15.54;100.00;94537.56;4955293;29;20260;-75
2022/07/10 02:26:00;;;;;;;15.73;13.90;;;;;;;15.53;100.00;94532.56;4955570;29;20256;-75
2022/07/10 02:28:29;;;;;;;21.13;14.70;;;;;;;15.45;100.00;94527.78;4955572;29;20189;-76
2022/07/10 02:30:56;;;;;;;25.37;15.07;;;;;;;15.47;100.00;94531.75;4954784;28;20628;-76
2022/07/10 02:33:22;;;;;;;17.97;13.87;;;;;;;15.52;100.00;94531.81;4954964;29;20217;-76
2022/07/10 02:35:49;;;;;;;19.60;14.00;;;;;;;15.46;100.00;94524.13;4955536;29;20582;-76
2022/07/10 02:38:16;;;;;;;19.67;14.30;;;;;;;15.50;100.00;94527.84;4955526;29;20238;-75
2022/07/10 02:40:43;;;;;;;17.83;14.47;;;;;;;15.50;100.00;94530.47;4955228;29;20209;-77
2022/07/10 02:43:10;;;;;;;21.37;14.97;;;;;;;15.48;100.00;94522.84;4955151;29;20200;-75
2022/07/10 02:45:39;;;;;;;29.60;22.10;;;;;;;15.53;100.00;94524.72;4955189;29;20541;-78
2022/07/10 02:48:06;;;;;;;27.97;22.50;;;;;;;15.46;100.00;94535.38;4947369;29;20226;-76
2022/07/10 02:50:33;;;;;;;26.93;22.13;;;;;;;15.47;100.00;94534.34;4935978;29;20200;-77
2022/07/10 02:53:00;;;;;;;25.70;21.43;;;;;;;15.53;100.00;94538.59;4935812;29;20233;-76
2022/07/10 02:55:26;;;;;;;29.27;21.83;;;;;;;15.51;100.00;94540.69;4935584;29;20206;-75
2022/07/10 02:57:53;;;;;;;24.87;17.80;;;;;;;15.53;100.00;94541.22;4936033;29;20198;-76
2022/07/10 03:00:20;;;;;;;21.47;16.10;;;;;;;15.58;100.00;94541.28;4935743;29;20242;-78
2022/07/10 03:02:48;;;;;;;19.77;14.33;;;;;;;15.58;100.00;94546.53;4935696;29;20198;-75
2022/07/10 03:05:15;;;;;;;14.80;13.20;;;;;;;15.56;100.00;94543.34;4935568;29;20194;-75
2022/07/10 03:07:42;;;;;;;16.10;12.87;;;;;;;15.57;100.00;94558.03;4935898;29;20202;-76
2022/07/10 03:10:10;;;;;;;18.13;13.67;;;;;;;15.50;100.00;94546.19;4935942;29;20198;-75
2022/07/10 03:12:37;;;;;;;16.53;13.00;;;;;;;15.56;100.00;94556.44;4935230;29;20194;-76
2022/07/10 03:15:06;;;;;;;15.60;13.37;;;;;;;15.58;100.00;94557.00;4935529;29;20240;-76
2022/07/10 03:17:33;;;;;;;16.37;13.50;;;;;;;15.57;100.00;94563.25;4935233;29;20210;-76
2022/07/10 03:20:01;;;;;;;19.83;13.30;;;;;;;15.57;100.00;94565.09;4935599;29;20289;-76
2022/07/10 03:22:28;;;;;;;18.70;13.27;;;;;;;15.55;100.00;94562.72;4935492;29;20573;-76
2022/07/10 03:24:55;;;;;;;18.03;13.90;;;;;;;15.43;100.00;94554.22;4935444;29;20658;-76
2022/07/10 03:27:22;;;;;;;14.67;13.17;;;;;;;15.51;100.00;94569.50;4935144;29;20701;-76
2022/07/10 03:29:49;;;;;;;16.90;12.53;;;;;;;15.48;100.00;94567.38;4934941;29;20194;-76
2022/07/10 03:32:16;;;;;;;16.97;12.90;;;;;;;15.50;100.00;94570.53;4935312;29;20198;-75
2022/07/10 03:34:43;;;;;;;19.27;14.33;;;;;;;15.57;100.00;94575.56;4935022;29;20226;-75
2022/07/10 03:37:11;;;;;;;17.33;13.83;;;;;;;15.53;100.00;94564.78;4935179;29;20653;-76
2022/07/10 03:39:38;;;;;;;18.33;13.90;;;;;;;15.64;100.00;94569.06;4935041;29;20198;-75
2022/07/10 03:42:06;;;;;;;16.90;13.77;;;;;;;15.63;100.00;94571.94;4934420;29;20202;-75
2022/07/10 03:44:33;;;;;;;14.63;13.00;;;;;;;15.57;100.00;94560.66;4935028;29;20226;-75
2022/07/10 03:47:00;;;;;;;20.53;13.93;;;;;;;15.59;100.00;94557.75;4935240;29;20198;-75
2022/07/10 03:49:27;;;;;;;20.33;13.10;;;;;;;15.63;100.00;94554.41;4935082;29;20265;-75
2022/07/10 03:51:54;;;;;;;19.83;13.80;;;;;;;15.66;100.00;94558.34;4934821;29;20297;-75
2022/07/10 03:54:23;;;;;;;15.87;13.47;;;;;;;15.64;100.00;94553.34;4934638;29;20222;-76
2022/07/10 03:59:34;;;;;;;17.63;13.57;;;;;;;15.67;100.00;94550.22;4934909;29;20558;-75
2022/07/10 04:02:01;;;;;;;17.10;13.57;;;;;;;15.67;100.00;94552.09;4934695;29;20198;-75
2022/07/10 04:04:29;;;;;;;16.23;13.00;;;;;;;15.70;100.00;94543.72;4934438;29;20190;-75
2022/07/10 04:06:56;;;;;;;15.43;13.40;;;;;;;15.74;100.00;94552.63;4934295;29;20660;-75
2022/07/10 04:09:24;;;;;;;15.07;12.93;;;;;;;15.69;100.00;94550.78;4934144;29;20202;-75
2022/07/10 04:11:51;;;;;;;15.30;13.40;;;;;;;15.68;100.00;94548.41;4934540;29;20194;-76
2022/07/10 04:14:18;;;;;;;17.13;13.47;;;;;;;15.69;100.00;94544.75;4934552;29;20217;-78
2022/07/10 04:16:45;;;;;;;15.10;13.10;;;;;;;15.76;100.00;94546.09;4934060;29;20210;-76
2022/07/10 04:19:12;;;;;;;18.37;13.17;;;;;;;15.81;100.00;94540.88;4934339;29;20206;-76
2022/07/10 04:21:39;;;;;;;23.00;13.97;;;;;;;15.86;100.00;94540.94;4934364;29;20202;-76
2022/07/10 04:24:06;;;;;;;14.43;12.93;;;;;;;15.93;100.00;94534.69;4934441;29;20669;-76
2022/07/10 04:26:35;;;;;;;15.90;13.20;;;;;;;15.94;100.00;94534.41;4933980;29;20198;-76
2022/07/10 04:29:01;;;;;;;18.20;12.93;;;;;;;16.01;100.00;94534.19;4934152;29;20544;-76
2022/07/10 04:31:28;;;;;;;16.20;13.47;;;;;;;16.08;100.00;94532.91;4934117;29;20233;-76
2022/07/10 04:33:57;;;;;;;17.70;12.57;;;;;;;16.16;100.00;94532.44;4933801;29;20229;-76
2022/07/10 04:36:24;;;;;;;16.77;12.70;;;;;;;16.26;100.00;94539.56;4934379;29;20257;-76
2022/07/10 04:38:51;;;;;;;17.07;12.53;;;;;;;16.30;100.00;94538.03;4933817;29;20233;-76
2022/07/10 04:41:18;;;;;;;17.83;12.30;;;;;;;16.31;100.00;94540.38;4933929;29;20555;-76
2022/07/10 04:43:46;;;;;;;17.03;12.23;;;;;;;16.24;100.00;94536.41;4934276;29;20677;-76
2022/07/10 04:46:13;;;;;;;13.33;11.70;;;;;;;16.16;100.00;94542.91;4934253;29;20201;-76
2022/07/10 04:48:40;;;;;;;15.30;11.50;;;;;;;16.25;100.00;94543.22;4946183;29;20678;-76
2022/07/10 04:51:08;;;;;;;12.50;11.13;;;;;;;16.35;100.00;94545.91;4953487;29;20208;-76
2022/07/10 04:53:35;;;;;;;13.90;11.67;;;;;;;16.30;100.00;94536.19;4953120;28;20284;-76
2022/07/10 04:56:02;;;;;;;16.53;12.00;;;;;;;16.27;100.00;94541.94;4956867;29;20233;-76
2022/07/10 04:58:29;;;;;;;15.43;11.77;;;;;;;16.21;100.00;94532.47;4957281;29;20201;-77
2022/07/10 05:00:58;;;;;;;15.07;12.07;;;;;;;16.29;100.00;94539.84;4957128;29;20198;-76
2022/07/10 05:03:24;;;;;;;15.87;11.70;;;;;;;16.25;100.00;94541.38;4956367;29;20202;-75
2022/07/10 05:05:51;;;;;;;14.33;11.47;;;;;;;16.34;100.00;94539.88;4957513;29;20252;-72
2022/07/10 05:08:18;;;;;;;12.87;11.37;;;;;;;16.35;100.00;94538.03;4956730;29;20208;-75
2022/07/10 05:10:45;;;;;;;13.50;11.40;;;;;;;16.43;100.00;94548.81;4956711;29;20252;-76
2022/07/10 05:13:13;;;;;;;16.10;12.00;;;;;;;16.47;100.00;94538.63;4956463;29;20198;-76
2022/07/10 05:15:39;;;;;;;16.40;11.47;;;;;;;16.50;100.00;94526.81;4956950;29;20205;-76
2022/07/10 05:18:08;;;;;;;17.60;11.60;;;;;;;16.36;100.00;94532.50;4956648;29;20209;-76
2022/07/10 05:20:37;;;;;;;17.93;11.23;;;;;;;16.31;100.00;94534.34;4957008;29;20611;-77
2022/07/10 05:23:04;;;;;;;14.57;11.63;;;;;;;16.37;100.00;94533.31;4956637;29;20679;-77
2022/07/10 05:25:32;;;;;;;13.80;11.43;;;;;;;16.43;100.00;94533.09;4956415;29;20684;-77
2022/07/10 05:27:59;;;;;;;18.70;12.07;;;;;;;16.51;100.00;94536.28;4956185;29;20198;-76
2022/07/10 05:30:26;;;;;;;12.97;11.47;;;;;;;16.55;100.00;94538.16;4956627;29;20574;-76
2022/07/10 05:32:53;;;;;;;15.30;11.77;;;;;;;16.63;100.00;94537.63;4956727;29;20210;-77
2022/07/10 05:35:21;;;;;;;13.20;10.93;;;;;;;16.75;100.00;94532.16;4957596;29;20221;-78
2022/07/10 05:38:00;;;;;;;11.93;10.57;;;;;;;16.88;100.00;94545.56;4957067;29;20244;-76
2022/07/10 05:40:27;;;;;;;16.80;10.60;;;;;;;17.00;100.00;94543.50;4956342;29;20574;-76
2022/07/10 05:42:54;;;;;;;15.27;10.10;;;;;;;17.10;100.00;94534.06;4956083;29;20197;-75
2022/07/10 05:45:21;;;;;;;13.50;10.23;;;;;;;17.16;100.00;94528.56;4956393;29;20200;-76
2022/07/10 05:47:48;;;;;;;13.93;9.10;;;;;;;17.36;100.00;94530.41;4950866;29;20298;-80
2022/07/10 05:50:14;;;;;;;9.83;8.73;;;;;;;17.30;100.00;94534.09;4936713;29;20210;-75
2022/07/10 05:52:43;;;;;;;11.17;9.13;;;;;;;17.28;100.00;94528.31;4936985;29;20253;-76
2022/07/10 05:55:10;;;;;;;13.43;8.63;;;;;;;17.35;100.00;94534.09;4936794;29;20218;-76
2022/07/10 05:57:37;;;;;;;14.53;8.17;;;;;;;17.53;100.00;94542.25;4936747;29;20194;-83
2022/07/10 06:00:05;;;;;;;11.37;8.30;;;;;;;17.76;100.00;94543.56;4937002;29;20572;-83
2022/07/10 06:02:32;;;;;;;12.80;8.13;;;;;;;17.79;100.00;94537.00;4937297;29;20198;-83
2022/07/10 06:05:00;;;;;;;9.10;8.13;;;;;;;17.88;100.00;94538.81;4936654;29;20201;-83
2022/07/10 06:07:27;;;;;;;9.50;7.87;;;;;;;17.85;100.00;94543.81;4936645;29;20256;-84
2022/07/10 06:09:56;;;;;;;10.87;7.73;;;;;;;17.78;100.00;94536.19;4937279;29;20198;-80
2022/07/10 06:12:23;;;;;;;16.37;8.30;;;;;;;17.79;100.00;94540.41;4936671;29;20198;-82
2022/07/10 06:14:58;;;;;;;10.77;7.37;;;;;;;17.81;100.00;94540.13;4936580;29;20230;-81
2022/07/10 06:17:25;;;;;;;9.30;8.40;;;;;;;17.74;100.00;94532.53;4939239;29;20571;-82
2022/07/10 06:19:53;;;;;;;8.43;7.50;;;;;;;17.79;100.00;94534.34;4955675;29;20288;-82
2022/07/10 06:22:33;;;;;;;16.27;8.33;;;;;;;17.77;100.00;94539.91;4955151;29;20198;-76
2022/07/10 06:25:04;;;;;;;9.67;7.90;;;;;;;17.75;100.00;94523.56;4955243;29;20186;-79
2022/07/10 06:27:32;;;;;;;10.23;8.57;;;;;;;17.92;100.00;94539.84;4955090;29;20198;-75
2022/07/10 06:29:59;;;;;;;11.40;8.37;;;;;;;17.97;100.00;94533.81;4955351;29;20730;-77
2022/07/10 06:32:26;;;;;;;11.10;8.10;;;;;;;18.02;100.00;94537.22;4935550;29;20209;-76
2022/07/10 06:34:54;;;;;;;10.97;8.17;;;;;;;18.07;100.00;94534.56;4935848;29;20317;-76
2022/07/10 06:37:21;;;;;;;10.60;7.30;;;;;;;18.23;100.00;94529.28;4935776;29;20226;-77
2022/07/10 06:39:49;;;;;;;8.33;7.53;;;;;;;18.34;100.00;94528.19;4935743;29;20626;-75
2022/07/10 06:42:17;;;;;;;10.23;7.60;;;;;;;18.33;100.00;94529.22;4935733;29;20721;-76
2022/07/10 06:44:47;;;;;;;9.13;7.23;;;;;;;18.32;100.00;94536.34;4936245;29;20205;-78
2022/07/10 06:50:03;;;;;;;10.07;6.90;;;;;;;18.26;100.00;94534.78;4934223;29;20710;-79
2022/07/10 06:52:32;;;;;;;9.10;7.53;;;;;;;18.31;100.00;94542.66;4935170;29;20194;-78
2022/07/10 06:55:00;;;;;;;10.87;6.70;;;;;;;18.27;100.00;94525.81;4935228;29;20218;-77
2022/07/10 06:57:31;;;;;;;8.57;6.27;;;;;;;18.37;100.00;94525.81;4935274;29;20194;-78
2022/07/10 06:59:58;;;;;;;7.10;6.40;;;;;;;18.40;100.00;94532.38;4933652;29;20321;-78
2022/07/10 07:02:25;;;;;;;7.30;6.37;;;;;;;18.45;100.00;94532.34;4935133;29;20205;-80
2022/07/10 07:04:56;;;;;;;6.87;6.17;;;;;;;18.43;100.00;94522.09;4934755;29;20641;-76
2022/07/10 07:07:23;;;;;;;9.33;7.23;;;;;;;18.45;100.00;94522.59;4934959;29;20194;-76
2022/07/10 07:09:53;;;;;;;8.63;6.70;;;;;;;18.43;100.00;94522.09;4934280;29;20194;-76
2022/07/10 07:12:22;;;;;;;10.13;7.53;;;;;;;18.36;100.00;94526.84;4935144;29;20198;-81
2022/07/10 07:14:50;;;;;;;14.90;9.00;;;;;;;18.40;100.00;94524.47;4935324;29;20225;-78
2022/07/10 07:17:22;;;;;;;26.13;9.63;;;;;;;18.54;100.00;94521.03;4934721;29;20202;-77
2022/07/10 07:25:19;;;;;;;11.60;6.83;;;;;;;18.98;100.00;94520.25;4934748;29;20209;-77
2022/07/10 07:27:46;;;;;;;11.65;6.30;;;;;;;19.14;100.00;94514.63;4934595;29;20360;-78
2022/07/10 07:30:16;;;;;;;7.80;6.78;;;;;;;19.24;100.00;94511.13;4935127;29;20234;-78
2022/07/10 07:32:43;;;;;;;11.40;6.83;;;;;;;19.36;100.00;94508.94;4935100;29;20204;-78
2022/07/10 07:35:14;;;;;;;8.95;6.28;;;;;;;19.27;100.00;94514.00;4934755;29;20573;-78
2022/07/10 07:37:42;;;;;;;7.65;6.38;;;;;;;19.30;100.00;94517.16;4933453;29;20238;-81
2022/07/10 07:40:11;;;;;;;8.00;5.70;;;;;;;19.34;100.00;94510.25;4927424;29;20194;-81
2022/07/10 07:42:38;;;;;;;11.90;6.32;;;;;;;19.47;100.00;94515.72;4932356;29;20231;-82
2022/07/10 07:45:07;;;;;;;9.93;5.47;;;;;;;19.52;100.00;94513.03;4935269;29;20190;-81
2022/07/10 07:47:45;;;;;;;12.88;5.70;;;;;;;19.58;99.48;94516.41;4934695;29;20222;-80
2022/07/10 07:50:16;;;;;;;13.52;5.72;;;;;;;19.66;99.57;94500.00;4934917;29;20716;-81
2022/07/10 07:52:43;;;;;;;9.88;5.38;;;;;;;19.83;97.55;94518.81;4926212;29;20198;-79
2022/07/10 07:55:11;;;;;;;6.72;5.13;;;;;;;19.91;96.97;94514.81;4919106;29;20226;-79
2022/07/10 07:57:59;;;;;;;7.95;5.13;;;;;;;19.99;96.45;94508.91;4915966;29;20584;-82
2022/07/10 08:00:33;;;;;;;7.47;5.22;;;;;;;20.03;95.18;94508.06;4916166;29;20187;-83
2022/07/10 08:03:05;;;;;;;6.10;4.70;;;;;;;20.15;93.41;94508.47;4915663;29;20197;-79
2022/07/10 08:05:33;;;;;;;6.63;4.63;;;;;;;20.06;93.04;94486.41;4915797;29;20283;-81
2022/07/10 08:08:04;;;;;;;8.70;5.40;;;;;;;20.23;92.89;94502.56;4915471;29;20576;-80
2022/07/10 08:10:31;;;;;;;12.48;4.80;;;;;;;20.17;93.20;94501.06;4915435;29;20207;-77
2022/07/10 08:12:58;;;;;;;7.15;4.68;;;;;;;20.26;93.34;94499.41;4915063;29;20199;-78
2022/07/10 08:15:30;;;;;;;9.85;4.88;;;;;;;20.33;93.25;94505.13;4915326;29;20222;-79
2022/07/10 08:18:07;;;;;;;7.90;5.00;;;;;;;20.40;93.84;94499.53;4921790;29;20721;-78
2022/07/10 08:20:34;;;;;;;7.30;4.97;;;;;;;20.37;91.45;94502.72;4934369;29;20289;-77
2022/07/10 08:23:01;;;;;;;7.57;4.80;;;;;;;20.54;91.46;94507.53;4934183;29;20699;-77
2022/07/10 08:25:29;;;;;;;8.27;4.95;;;;;;;20.60;90.89;94503.75;4934258;29;20633;-77
2022/07/10 08:28:01;;;;;;;8.25;5.20;;;;;;;20.61;89.11;94506.09;4933951;29;20202;-77
2022/07/10 08:30:28;;;;;;;10.93;5.60;;;;;;;20.63;88.23;94500.56;4933876;29;20213;-78
2022/07/10 08:32:55;;;;;;;6.80;4.85;;;;;;;20.73;89.70;94503.06;4933937;29;20208;-79
2022/07/10 08:35:24;;;;;;;8.32;4.70;;;;;;;20.86;86.37;94511.09;4933495;29;20253;-76
2022/07/10 08:37:51;;;;;;;8.13;4.82;;;;;;;20.93;84.49;94516.00;4940689;29;20316;-80
2022/07/10 08:40:18;;;;;;;6.18;4.50;;;;;;;21.01;83.95;94509.28;4953341;29;20204;-78
2022/07/10 08:42:45;;;;;;;6.57;4.57;;;;;;;21.12;84.30;94516.81;4953194;29;20640;-79
2022/07/10 08:45:13;;;;;;;5.13;4.10;;;;;;;21.27;87.46;94510.53;4953166;29;20197;-76
2022/07/10 08:47:42;;;;;;;5.68;4.32;;;;;;;21.23;84.42;94515.59;4953607;29;20212;-79
2022/07/10 08:50:17;;;;;;;5.68;4.50;;;;;;;21.08;84.26;94515.03;4935549;29;20206;-77
2022/07/10 08:52:55;;;;;;;7.93;4.60;;;;;;;21.15;83.88;94516.25;4932617;29;20193;-75
2022/07/10 08:55:28;;;;;;;7.30;4.57;;;;;;;21.24;82.73;94501.28;4928122;29;20619;-77
2022/07/10 08:57:56;;;;;;;5.22;4.40;;;;;;;21.40;82.03;94513.22;4933187;29;20197;-76
2022/07/10 09:00:23;;;;;;;10.05;4.47;;;;;;;21.61;83.59;94502.31;4933295;29;20294;-77
2022/07/10 09:02:50;;;;;;;7.53;4.20;;;;;;;21.98;89.90;94495.06;4933089;29;20706;-77
2022/07/10 09:05:23;;;;;;;7.65;4.93;;;;;;;22.01;81.70;94496.34;4932703;29;20215;-77
2022/07/10 09:07:56;;;;;;;5.93;4.25;;;;;;;21.99;80.01;94517.03;4932493;29;20237;-75
2022/07/10 09:10:28;;;;;;;5.88;4.53;;;;;;;21.89;79.84;94503.97;4932095;29;20190;-77
2022/07/10 09:12:56;;;;;;;5.15;4.40;;;;;;;21.93;80.27;94494.38;4929678;29;20199;-74
2022/07/10 09:15:24;;;;;;;4.70;4.00;;;;;;;21.83;81.19;94497.16;4932508;29;20751;-78
2022/07/10 09:17:56;;;;;;;8.02;4.22;;;;;;;21.90;82.82;94494.97;4932696;29;20281;-77
2022/07/10 09:20:29;;;;;;;8.93;4.68;;;;;;;22.09;79.27;94485.06;4932117;29;20200;-78
2022/07/10 09:22:59;;;;;;;5.63;5.00;;;;;;;22.12;80.39;94495.06;4932496;29;20200;-76
2022/07/10 09:25:32;;;;;;;5.15;4.57;;;;;;;22.20;79.75;94497.03;4932407;29;20201;-78
2022/07/10 09:28:05;;;;;;;5.95;4.13;;;;;;;22.24;79.84;94494.59;4930661;29;20203;-77
2022/07/10 09:30:36;;;;;;;6.78;4.72;;;;;;;22.15;79.52;94497.13;4932318;29;20271;-77
2022/07/10 09:33:23;;;;;;;7.35;4.78;;;;;;;22.09;78.61;94490.34;4933034;29;20205;-76
2022/07/10 09:36:07;;;;;;;7.60;4.47;;;;;;;22.04;80.37;94483.31;4933611;29;20254;-77
2022/07/10 09:38:55;;;;;;;7.40;4.47;;;;;;;22.14;79.75;94478.88;4933536;29;20230;-77
2022/07/10 09:41:27;;;;;;;4.43;4.00;;;;;;;22.36;80.11;94485.09;4924359;29;20194;-77
2022/07/10 09:43:55;;;;;;;6.60;4.25;;;;;;;22.66;78.99;94488.19;4923254;29;20216;-74
2022/07/10 09:46:23;;;;;;;11.55;3.90;;;;;;;22.94;76.31;94487.06;4925767;29;20273;-74
2022/07/10 09:49:02;;;;;;;5.28;3.70;;;;;;;23.26;76.45;94489.50;4924689;29;20233;-74
2022/07/10 09:51:32;;;;;;;4.28;3.85;;;;;;;23.32;76.76;94480.34;4927048;29;20214;-74
2022/07/10 09:54:01;;;;;;;6.47;3.85;;;;;;;23.51;77.30;94481.00;4926245;29;20296;-72
2022/07/10 09:56:31;;;;;;;4.78;4.15;;;;;;;23.67;73.50;94479.50;4926661;29;20215;-76
2022/07/10 09:59:01;;;;;;;5.53;3.45;;;;;;;23.79;75.09;94471.00;4921641;29;21008;-76
2022/07/10 10:01:30;;;;;;;7.35;3.90;;;;;;;24.06;75.77;94472.69;4917915;29;20272;-75
2022/07/10 10:04:00;;;;;;;6.22;3.83;;;;;;;24.16;72.93;94475.88;4917534;29;20203;-75
2022/07/10 10:06:29;;;;;;;4.93;3.58;;;;;;;24.14;70.22;94479.94;4918429;29;20195;-76
2022/07/10 10:09:05;;;;;;;6.55;4.00;;;;;;;24.00;70.55;94477.34;4917875;29;20203;-74
2022/07/10 10:11:35;;;;;;;5.30;3.90;;;;;;;23.94;72.18;94475.91;4917162;29;20277;-76
2022/07/10 10:14:02;;;;;;;7.65;3.90;;;;;;;24.03;70.13;94479.41;4916980;29;20689;-75
2022/07/10 10:16:30;;;;;;;8.32;4.25;;;;;;;24.14;71.50;94472.75;4917097;29;20222;-75
2022/07/10 10:21:42;;;;;;;4.63;3.80;;;;;;;24.06;71.65;94476.13;4917323;29;20672;-74
2022/07/10 10:24:12;;;;;;;4.03;3.50;;;;;;;23.84;73.15;94467.44;4916678;29;20214;-76
2022/07/10 10:26:40;;;;;;;4.22;3.67;;;;;;;23.69;72.32;94473.91;4917117;29;20250;-75
2022/07/10 10:29:07;;;;;;;5.90;3.58;;;;;;;23.60;76.39;94475.72;4917043;29;20206;-75
2022/07/10 10:31:35;;;;;;;3.70;3.40;;;;;;;23.55;71.78;94454.63;4916987;29;20199;-76
2022/07/10 10:34:02;;;;;;;6.22;3.60;;;;;;;23.59;71.76;94464.34;4917110;29;20202;-78
2022/07/10 10:36:45;;;;;;;4.25;3.53;;;;;;;23.70;73.34;94462.19;4917007;29;20229;-75
2022/07/10 10:39:16;;;;;;;7.88;3.80;;;;;;;23.79;72.36;94448.97;4934085;29;20261;-74
2022/07/10 10:41:47;;;;;;;5.18;4.22;;;;;;;23.73;70.17;94457.06;4936042;29;20198;-74
2022/07/10 10:44:26;;;;;;;5.82;4.40;;;;;;;23.68;70.80;94456.41;4936049;29;20281;-74
2022/07/10 10:47:00;;;;;;;5.55;3.70;;;;;;;23.54;74.00;94461.81;4935522;29;20190;-74
2022/07/10 10:49:48;;;;;;;4.47;3.88;;;;;;;23.70;72.83;94455.03;4932441;29;20279;-74
2022/07/10 10:52:16;;;;;;;9.45;3.65;;;;;;;23.86;71.43;94455.41;4934979;29;20249;-76
2022/07/10 10:55:07;;;;;;;10.10;3.75;;;;;;;24.06;72.96;94448.78;4935813;29;20233;-75
2022/07/10 10:57:48;;;;;;;9.93;3.67;;;;;;;24.11;69.80;94453.97;4935578;29;20270;-75
2022/07/10 11:00:37;;;;;;;8.40;3.70;;;;;;;23.88;69.75;94444.47;4935460;29;20253;-74
2022/07/10 11:03:15;;;;;;;5.38;3.70;;;;;;;23.93;69.30;94452.31;4935114;29;20201;-74
2022/07/10 11:05:46;;;;;;;3.60;3.25;;;;;;;24.08;68.56;94449.25;4935539;29;20635;-75
2022/07/10 11:08:14;;;;;;;5.07;3.50;;;;;;;24.28;67.47;94438.09;4934977;29;20194;-75
2022/07/10 11:10:44;;;;;;;5.35;3.22;;;;;;;24.73;69.06;94441.31;4932779;29;20191;-74
2022/07/10 11:13:12;;;;;;;7.78;3.38;;;;;;;25.24;69.17;94457.31;4934444;29;20206;-76
2022/07/10 11:15:42;;;;;;;5.50;3.20;;;;;;;25.67;65.79;94445.84;4934770;29;20226;-74
2022/07/10 11:18:11;;;;;;;7.90;3.50;;;;;;;25.42;64.95;94440.22;4935018;29;20237;-73
2022/07/10 11:20:40;;;;;;;4.68;3.38;;;;;;;25.26;66.62;94441.81;4935390;29;20220;-75
2022/07/10 11:23:19;;;;;;;5.57;4.00;;;;;;;25.07;68.50;94449.34;4934985;29;20201;-75
2022/07/10 11:26:00;;;;;;;9.30;3.40;;;;;;;25.05;66.31;94438.22;4935181;29;20655;-73
2022/07/10 11:28:42;;;;;;;6.18;3.55;;;;;;;25.00;66.64;94443.69;4934862;29;20208;-75
2022/07/10 11:31:09;;;;;;;7.07;3.60;;;;;;;24.69;65.39;94440.38;4934764;29;20257;-73
2022/07/10 11:33:51;;;;;;;6.28;3.40;;;;;;;24.54;67.02;94436.28;4934521;29;20199;-74
2022/07/10 11:36:20;;;;;;;7.38;3.40;;;;;;;24.61;68.45;94441.16;4934648;29;20668;-74
2022/07/10 11:38:47;;;;;;;5.90;3.72;;;;;;;24.73;67.54;94442.09;4933234;29;20237;-74
2022/07/10 11:41:17;;;;;;;8.57;3.40;;;;;;;25.00;67.96;94443.69;4934029;29;20205;-73
2022/07/10 11:43:48;;;;;;;5.95;3.47;;;;;;;25.17;66.18;94432.28;4933563;29;20225;-74